Chadstone Weather > Observations for 06/09/20

Select Day:



Observations
Time Temp Hum DP Wind Gust Dir Rain >9am Press
C % C kph kph mm hPa
00:00 9.9 82 7.0 0.3 2.5 SE 0.0 1029.9
00:10 9.8 82 6.9 0.2 1.1 SE 0.0 1029.8
00:20 9.7 82 6.8 0.0 0.0 N 0.0 1029.9
00:30 9.5 82 6.6 0.3 2.5 NW 0.0 1029.9
00:40 9.4 83 6.7 0.2 2.5 NW 0.0 1029.9
00:50 9.2 83 6.5 0.0 1.1 NW 0.0 1029.9
01:00 9.2 84 6.6 0.3 3.6 NW 0.0 1030.0
01:10 9.1 84 6.5 0.0 0.0 N 0.0 1029.9
01:20 8.9 85 6.5 0.0 2.5 NW 0.0 1030.0
01:30 8.8 85 6.4 0.3 2.5 NW 0.0 1030.0
01:40 8.7 85 6.3 0.1 2.5 NW 0.0 1029.9
01:50 8.6 85 6.2 0.0 1.1 NW 0.0 1029.9
02:00 8.5 85 6.1 0.3 3.6 NW 0.0 1029.9
02:10 8.4 86 6.2 0.2 2.5 NW 0.0 1029.9
02:20 8.4 86 6.2 0.6 2.5 NW 0.0 1029.9
02:30 8.3 86 6.1 0.0 2.5 ENE 0.0 1029.9
02:40 8.2 86 6.0 1.2 3.6 SW 0.0 1029.8
02:50 8.3 86 6.1 0.8 3.6 NW 0.0 1029.8
03:00 8.3 86 6.1 0.6 3.6 NNW 0.0 1029.8
03:10 8.2 86 6.0 1.0 5.0 WNW 0.0 1029.8
03:20 8.2 87 6.2 1.5 5.0 NW 0.0 1029.7
03:30 8.2 87 6.2 0.8 3.6 N 0.0 1029.9
03:40 8.1 87 6.1 2.0 7.2 NW 0.0 1030.1
03:50 8.2 87 6.2 2.7 7.2 NW 0.0 1030.1
04:00 8.3 87 6.3 1.7 3.6 N 0.0 1030.3
04:10 8.1 87 6.1 0.3 2.5 N 0.0 1030.3
04:20 8.0 87 6.0 1.1 2.5 N 0.0 1030.3
04:30 8.0 87 6.0 1.1 2.5 N 0.0 1030.3
04:40 7.8 86 5.6 1.2 3.6 NNW 0.0 1030.3
04:50 7.8 87 5.8 2.5 6.1 NNW 0.0 1030.3
05:00 7.9 87 5.9 4.8 6.1 N 0.0 1030.4
05:10 8.0 87 6.0 4.0 8.6 NNW 0.0 1030.5
05:20 7.9 87 5.9 3.7 7.2 NW 0.0 1030.5
05:30 7.9 87 5.9 3.6 5.0 NW 0.0 1030.6
05:40 7.9 87 5.9 3.6 5.0 NW 0.0 1030.7
05:50 7.9 87 5.9 3.6 5.0 NW 0.0 1030.8
06:00 7.9 87 5.9 3.6 5.0 NW 0.0 1031.1
06:10 7.9 87 5.9 3.6 5.0 NW 0.0 1031.1
06:20 7.9 87 5.9 3.6 5.0 NW 0.0 1031.3
06:30 7.9 87 5.9 3.6 5.0 NW 0.0 1031.5
06:40 7.9 87 5.9 3.6 5.0 NW 0.0 1031.6
06:50 7.9 87 5.9 3.6 5.0 NW 0.0 1031.8
07:00 7.9 87 5.9 3.6 5.0 NW 0.0 1031.8
07:10 7.8 87 5.8 3.6 7.2 NNE 0.0 1032.0
07:20 7.9 87 5.9 3.2 6.1 NNE 0.0 1032.1
07:30 8.1 87 6.1 4.7 9.7 N 0.0 1032.1
07:40 8.3 87 6.3 2.9 7.2 N 0.0 1032.3
07:50 8.3 87 6.3 1.1 3.6 NW 0.0 1032.3
08:00 9.2 86 7.0 6.0 9.7 N 0.0 1032.4
08:10 9.5 85 7.1 6.9 11.2 N 0.0 1032.6
08:20 10.1 83 7.3 7.1 12.2 N 0.0 1032.5
08:30 10.3 83 7.5 6.5 9.7 NNE 0.0 1032.4
08:40 11.0 78 7.3 6.3 12.2 NNE 0.0 1032.3
08:50 11.1 78 7.4 7.3 12.2 NE 0.0 1032.4
09:00 11.5 78 7.4 7.2 9.7 NE 0.0 1032.2
09:10 11.9 78 7.4 7.2 9.7 NE 0.0 1032.2
09:20 12.6 78 7.4 7.2 9.7 NE 0.0 1032.1
09:30 13.1 78 7.4 7.2 9.7 NE 0.0 1032.1
09:40 13.6 78 7.4 7.2 9.7 NE 0.0 1032.0
09:50 14.1 78 7.4 7.2 9.7 NE 0.0 1031.9
10:00 14.5 78 7.4 7.2 9.7 NE 0.0 1031.9
10:10 15.1 62 7.9 8.6 11.2 NW 0.0 1031.8
10:20 15.7 60 8.0 9.2 17.3 NW 0.0 1031.6
10:30 16.2 54 6.9 13.6 25.6 NW 0.0 1031.4
10:40 16.7 52 6.8 14.8 25.6 N 0.0 1031.4
10:50 16.9 50 6.4 13.0 23.4 N 0.0 1031.3
11:00 17.2 47 5.8 17.2 27.0 N 0.0 1031.0
11:10 17.4 46 5.7 13.5 25.6 N 0.0 1031.0
11:20 17.7 46 5.9 14.2 27.0 NNW 0.0 1030.9
11:30 17.8 45 5.7 15.2 30.6 NW 0.0 1030.9
11:40 18.1 46 6.3 15.9 30.6 NW 0.0 1030.6
11:50 18.1 45 6.0 16.4 35.6 NNW 0.0 1030.5
12:00 18.3 46 6.5 14.0 25.6 NW 0.0 1030.6
12:10 18.5 45 6.4 15.8 27.0 NW 0.0 1030.8
12:20 18.7 45 6.5 13.9 31.7 NW 0.0 1030.9
12:30 18.7 45 6.5 14.5 29.5 NNW 0.0 1030.8
12:40 18.8 45 6.6 12.1 27.0 NNW 0.0 1030.9
12:50 19.1 44 6.6 13.1 27.0 NNW 0.0 1030.9
13:00 19.1 44 6.6 14.8 27.0 NNW 0.0 1031.1
13:10 19.1 44 6.6 13.9 34.2 NNW 0.0 1031.1
13:20 19.3 44 6.8 11.7 25.6 NNW 0.0 1031.0
13:30 19.5 44 6.9 12.4 28.1 NW 0.0 1030.9
13:40 19.2 44 6.7 17.3 30.6 NW 0.0 1030.8
13:50 19.2 44 6.7 13.7 27.0 NNW 0.0 1031.0
14:00 19.0 45 6.8 17.0 33.1 NW 0.0 1030.9
14:10 19.2 45 7.0 14.2 28.1 NW 0.0 1030.7
14:20 19.2 45 7.0 13.6 23.4 NNW 0.0 1030.8
14:30 19.2 46 7.3 12.8 29.5 NW 0.0 1030.8
14:40 19.2 46 7.3 11.2 27.0 NNW 0.0 1030.9
14:50 19.2 46 7.3 14.7 30.6 NNW 0.0 1030.6
15:00 19.1 46 7.2 14.6 29.5 N 0.0 1030.8
15:10 19.2 47 7.6 12.8 25.6 NW 0.0 1030.5
15:20 19.1 46 7.2 14.6 35.6 N 0.0 1030.3
15:30 19.1 47 7.5 12.6 24.5 NNE 0.0 1030.2
15:40 19.1 47 7.5 11.3 35.6 N 0.0 1029.5
15:50 19.0 47 7.4 15.5 30.6 NNW 0.0 1029.5
16:00 18.9 48 7.7 13.3 24.5 NNW 0.0 1029.6
16:10 18.9 48 7.7 10.7 23.4 NNW 0.0 1029.6
16:20 18.8 48 7.6 13.1 25.6 N 0.0 1029.5
16:30 18.8 48 7.6 11.6 27.0 NNW 0.0 1029.5
16:40 18.6 48 7.4 12.6 27.0 NNW 0.0 1029.6
16:50 18.6 48 7.4 12.5 28.1 NNW 0.0 1029.6
17:00 18.4 49 7.5 13.3 27.0 NNW 0.0 1029.9
17:10 18.2 49 7.3 14.1 27.0 N 0.0 1030.3
17:20 18.1 49 7.2 15.0 27.0 NNW 0.0 1030.3
17:30 17.9 51 7.6 9.2 19.4 N 0.0 1030.4
17:40 17.7 51 7.4 9.7 22.0 NNW 0.0 1030.5
17:50 17.6 51 7.4 11.4 23.4 NNW 0.0 1030.7
18:00 17.4 52 7.5 7.4 13.3 N 0.0 1030.6
18:10 17.2 52 7.3 9.5 18.4 NNW 0.0 1030.6
18:20 17.1 52 7.2 8.3 18.4 NNW 0.0 1030.6
18:30 17.0 53 7.4 6.6 14.8 NNE 0.0 1030.6
18:40 16.7 56 7.9 7.5 14.8 NNE 0.0 1030.5
18:50 16.5 56 7.7 6.8 13.3 NNE 0.0 1030.4
19:00 16.3 57 7.8 7.2 13.3 NNE 0.0 1030.5
19:10 16.1 58 7.8 7.3 13.3 NNE 0.0 1030.7
19:20 16.0 58 7.7 8.0 17.3 N 0.0 1030.9
19:30 15.9 59 7.9 7.6 18.4 N 0.0 1030.8
19:40 15.9 60 8.2 8.7 17.3 NE 0.0 1030.9
19:50 15.7 60 8.0 8.7 15.8 N 0.0 1030.8
20:00 15.7 60 8.0 9.5 24.5 NNE 0.0 1030.9
20:10 15.6 59 7.6 10.6 22.0 N 0.0 1030.9
20:20 15.4 59 7.4 6.6 13.3 NNE 0.0 1031.0
20:30 15.4 59 7.4 7.8 17.3 NE 0.0 1031.1
20:40 15.2 60 7.5 6.4 14.8 NNE 0.0 1031.3
20:50 15.1 60 7.4 6.0 15.8 N 0.0 1031.3
21:00 15.0 60 7.3 7.6 15.8 NNE 0.0 1031.3
21:10 14.8 61 7.4 7.3 14.8 NNE 0.0 1031.4
21:20 14.7 62 7.5 6.4 11.2 NNE 0.0 1031.4
21:30 14.5 63 7.5 6.0 12.2 NNE 0.0 1031.5
21:40 14.3 63 7.4 8.2 15.8 NNE 0.0 1031.6
21:50 14.2 63 7.3 7.1 13.3 NE 0.0 1031.6
22:00 14.1 63 7.2 8.1 17.3 NNE 0.0 1031.6
22:10 14.0 63 7.1 8.4 14.8 NE 0.0 1031.6
22:20 14.0 63 7.1 8.8 17.3 NE 0.0 1031.7
22:30 13.9 63 7.0 9.0 17.3 NE 0.0 1031.8
22:40 13.9 62 6.7 7.1 12.2 NNE 0.0 1031.9
22:50 13.9 62 6.7 9.5 18.4 NNE 0.0 1031.8
23:00 13.9 61 6.5 9.8 17.3 N 0.0 1031.8
23:10 14.0 60 6.4 9.6 20.9 N 0.0 1031.9
23:20 13.9 61 6.5 8.1 15.8 N 0.0 1031.8
23:30 13.8 61 6.4 8.7 15.8 NNE 0.0 1031.8
23:40 13.7 61 6.3 7.8 17.3 NNE 0.0 1031.8
23:50 13.6 62 6.5 7.3 14.8 NNE 0.0 1031.8